Time;durP1;ratioP1;P1;durP2;ratioP2;P2;SDS_P1;SDS_P2;PMS_P1;PMS_P2;Temp;Humidity;BMP_temperature;BMP_pressure;BME280_temperature;BME280_humidity;BME280_pressure;Samples;Min_cycle;Max_cycle;Signal;HPM_P1;HPM_P2
2021/07/09 00:01:19;;;;;;;0.60;0.60;;;18.60;90.70;;;21.70;75.96;102096.44;5002315;28;97287;-74
2021/07/09 00:03:47;;;;;;;2.13;1.65;;;18.50;90.70;;;21.69;75.91;102090.22;5000704;28;96905;-73
2021/07/09 00:06:17;;;;;;;4.63;2.00;;;18.50;90.70;;;21.66;75.01;102090.09;5016977;28;97414;-73
2021/07/09 00:08:48;;;;;;;4.05;1.48;;;18.40;90.70;;;21.62;75.34;102090.00;5002610;28;97968;-74
2021/07/09 00:11:19;;;;;;;2.30;1.38;;;18.40;90.70;;;21.60;75.03;102089.47;5014813;27;97799;-74
2021/07/09 00:13:48;;;;;;;2.38;2.15;;;18.40;90.80;;;21.64;75.14;102092.38;4998235;28;96959;-73
2021/07/09 00:16:20;;;;;;;1.92;1.58;;;18.30;90.80;;;21.56;75.09;102101.44;5021037;27;97025;-74
2021/07/09 00:18:51;;;;;;;4.75;1.17;;;18.30;90.80;;;21.53;75.78;102102.91;5020295;27;99507;-73
2021/07/09 00:21:20;;;;;;;2.53;2.33;;;18.30;90.80;;;21.47;75.40;102095.31;5003771;28;97737;-73
2021/07/09 00:23:50;;;;;;;2.63;1.52;;;18.30;90.80;;;21.49;75.35;102104.72;4999133;28;96925;-73
2021/07/09 00:26:19;;;;;;;0.25;0.25;;;18.30;90.80;;;21.49;75.39;102102.00;5001507;28;96909;-73
2021/07/09 00:28:48;;;;;;;1.80;1.67;;;18.30;90.80;;;21.52;75.85;102097.81;5005775;28;97827;-73
2021/07/09 00:31:16;;;;;;;0.43;0.43;;;18.30;90.80;;;21.51;74.96;102104.41;5000707;28;97421;-74
2021/07/09 00:33:45;;;;;;;3.85;1.52;;;18.30;90.80;;;21.47;75.31;102101.56;5002412;28;96850;-74
2021/07/09 00:36:14;;;;;;;3.33;1.65;;;18.30;90.80;;;21.43;75.39;102097.91;5002347;28;96889;-74
2021/07/09 00:38:42;;;;;;;2.30;1.42;;;18.30;90.80;;;21.47;75.38;102103.50;5015182;27;97459;-74
2021/07/09 00:41:13;;;;;;;1.73;1.02;;;18.20;90.80;;;21.52;75.14;102098.59;5002873;28;97822;-73
2021/07/09 00:43:42;;;;;;;1.30;1.13;;;18.30;90.80;;;21.49;75.06;102096.53;4999154;28;97278;-73
2021/07/09 00:46:11;;;;;;;1.73;1.63;;;18.20;90.70;;;21.58;74.76;102099.16;5003703;28;97334;-73
2021/07/09 00:48:40;;;;;;;0.90;0.90;;;18.20;90.70;;;21.45;75.38;102097.56;5000354;28;96961;-73
2021/07/09 00:51:12;;;;;;;11.35;1.38;;;18.20;90.70;;;21.46;75.18;102091.78;4995800;28;96929;-74
2021/07/09 00:53:40;;;;;;;1.40;1.02;;;18.20;90.70;;;21.36;75.42;102089.50;5018640;27;96826;-73
2021/07/09 00:56:09;;;;;;;5.80;2.60;;;18.20;90.70;;;21.35;75.94;102087.94;5000130;28;96903;-74
2021/07/09 00:58:39;;;;;;;2.95;1.85;;;18.20;90.70;;;21.29;75.12;102080.31;5004147;28;99004;-73
2021/07/09 01:01:08;;;;;;;19.55;1.88;;;18.10;90.70;;;21.24;75.98;102084.03;4998056;28;97731;-73
2021/07/09 01:03:37;;;;;;;1.98;1.42;;;18.10;90.70;;;21.24;75.45;102078.59;5001982;28;96919;-74
2021/07/09 01:06:06;;;;;;;3.33;1.77;;;18.10;90.70;;;21.27;75.02;102080.63;5001808;28;97683;-74
2021/07/09 01:08:35;;;;;;;1.30;1.20;;;18.10;90.70;;;21.31;74.93;102067.13;5003190;28;96888;-74
2021/07/09 01:11:05;;;;;;;1.90;1.75;;;18.10;90.70;;;21.29;75.26;102081.09;5006528;28;97704;-73
2021/07/09 01:13:34;;;;;;;13.80;3.85;;;18.00;90.70;;;21.31;75.24;102070.63;4999819;28;97295;-73
2021/07/09 01:16:07;;;;;;;1.75;0.82;;;18.00;90.70;;;21.33;74.25;102065.66;5001780;28;97928;-74
2021/07/09 01:18:37;;;;;;;1.10;0.90;;;18.00;90.70;;;21.26;75.01;102070.09;5000225;28;97044;-73
2021/07/09 01:21:10;;;;;;;1.40;1.30;;;18.00;90.70;;;21.21;75.17;102060.19;5001993;28;98086;-73
2021/07/09 01:23:41;;;;;;;0.43;0.38;;;18.00;90.70;;;21.20;75.13;102066.78;5000600;28;97468;-73
2021/07/09 01:26:13;;;;;;;0.40;0.40;;;18.00;90.70;;;21.22;74.51;102063.72;4998937;28;96792;-73
2021/07/09 01:28:42;;;;;;;1.30;1.23;;;17.90;90.70;;;21.25;75.15;102060.31;5002361;28;96908;-73
2021/07/09 01:31:11;;;;;;;1.55;1.20;;;18.00;90.70;;;21.27;74.62;102066.22;5017612;27;97883;-74
2021/07/09 01:33:40;;;;;;;1.05;0.70;;;18.00;91.00;;;21.23;75.24;102070.75;5001029;28;97623;-73
2021/07/09 01:36:09;;;;;;;0.88;0.77;;;17.90;90.70;;;21.23;75.29;102068.03;5000339;28;97698;-73
2021/07/09 01:38:38;;;;;;;1.77;0.50;;;17.90;90.70;;;21.18;74.72;102071.78;5002956;28;96895;-73
2021/07/09 01:41:06;;;;;;;1.92;1.75;;;17.90;90.70;;;21.26;74.19;102064.63;5002175;28;97901;-74
2021/07/09 01:43:36;;;;;;;6.93;2.17;;;17.90;90.70;;;21.26;74.74;102065.41;5001705;28;98677;-74
2021/07/09 01:46:05;;;;;;;2.38;0.98;;;17.90;90.70;;;21.31;74.81;102067.13;5006243;28;97021;-74
2021/07/09 01:48:33;;;;;;;3.35;2.17;;;17.90;90.70;;;21.22;74.08;102069.97;4999845;28;97878;-74
2021/07/09 01:51:05;;;;;;;0.85;0.85;;;18.00;90.70;;;21.17;75.02;102072.91;5013831;27;97023;-74
2021/07/09 01:53:35;;;;;;;6.18;2.22;;;17.90;90.60;;;21.15;75.53;102066.19;5000038;28;96799;-74
2021/07/09 01:56:04;;;;;;;2.55;1.48;;;17.90;90.60;;;21.18;74.72;102060.88;5035475;27;96900;-74
2021/07/09 01:58:33;;;;;;;1.17;1.15;;;17.90;90.60;;;21.16;74.60;102057.69;5004654;28;96916;-74
2021/07/09 02:01:05;;;;;;;26.58;1.35;;;17.90;90.60;;;21.15;74.24;102049.84;4998365;28;97146;-74
2021/07/09 02:03:35;;;;;;;4.78;1.17;;;17.90;90.60;;;21.10;74.17;102061.78;4995561;28;96797;-74
2021/07/09 02:06:05;;;;;;;12.95;2.50;;;17.90;90.60;;;21.17;74.46;102059.28;5003289;28;96888;-74
2021/07/09 02:08:34;;;;;;;1.30;1.20;;;17.80;90.60;;;21.12;74.67;102066.88;4996858;28;100660;-73
2021/07/09 02:11:04;;;;;;;3.47;1.45;;;17.80;90.60;;;21.20;74.28;102066.78;5015560;27;97703;-73
2021/07/09 02:13:33;;;;;;;1.35;0.85;;;17.80;90.60;;;21.09;75.57;102068.38;5011575;28;96805;-73
2021/07/09 02:16:04;;;;;;;0.50;0.50;;;17.90;90.60;;;21.06;74.55;102054.63;5002629;28;97975;-73
2021/07/09 02:18:33;;;;;;;0.50;0.47;;;17.90;90.60;;;21.06;74.80;102060.88;4997170;28;98394;-73
2021/07/09 02:21:04;;;;;;;2.92;0.95;;;17.80;90.60;;;21.04;74.71;102062.34;4987825;28;97522;-74
2021/07/09 02:23:33;;;;;;;2.55;2.28;;;17.80;90.60;;;21.08;75.07;102061.34;5016922;27;96867;-73
2021/07/09 02:26:04;;;;;;;8.60;1.17;;;17.80;90.60;;;21.07;75.01;102059.75;5001155;28;97826;-73
2021/07/09 02:28:32;;;;;;;0.98;0.98;;;17.80;90.60;;;21.14;75.48;102059.97;5016520;27;97058;-74
2021/07/09 02:31:03;;;;;;;4.75;1.52;;;17.80;90.60;;;21.12;74.06;102058.69;5016046;28;97808;-73
2021/07/09 02:33:32;;;;;;;4.10;0.93;;;17.80;90.60;;;21.04;74.90;102059.63;5000131;28;97089;-73
2021/07/09 02:36:01;;;;;;;2.42;1.92;;;17.80;90.60;;;21.01;75.11;102065.75;4997145;28;96957;-73
2021/07/09 02:38:31;;;;;;;2.40;1.95;;;17.80;90.50;;;21.00;74.11;102062.22;5031597;27;96934;-74
2021/07/09 02:41:00;;;;;;;3.42;1.23;;;17.80;90.50;;;20.98;74.96;102056.31;4999257;28;97635;-73
2021/07/09 02:43:32;;;;;;;4.32;1.23;;;17.80;90.50;;;20.99;74.71;102052.44;4996141;28;96829;-73
2021/07/09 02:46:03;;;;;;;1.75;1.33;;;17.70;90.50;;;20.98;74.01;102050.84;4998552;28;98147;-73
2021/07/09 02:48:34;;;;;;;1.83;1.73;;;17.70;90.60;;;21.00;74.37;102055.97;5000083;28;98685;-73
2021/07/09 02:51:05;;;;;;;0.85;0.68;;;17.70;90.50;;;20.92;74.64;102054.94;4997293;28;96894;-73
2021/07/09 02:53:33;;;;;;;4.53;0.93;;;17.70;90.60;;;20.92;74.70;102054.94;5002105;28;97193;-73
2021/07/09 02:56:03;;;;;;;2.53;1.00;;;17.60;90.50;;;20.91;74.66;102066.97;5001502;28;97011;-73
2021/07/09 02:58:32;;;;;;;3.50;1.27;;;17.60;90.60;;;20.87;74.97;102068.78;4997978;28;96856;-73
2021/07/09 03:01:03;;;;;;;0.73;0.73;;;17.60;90.60;;;20.86;74.03;102072.66;4998533;28;96983;-73
2021/07/09 03:03:31;;;;;;;3.28;2.05;;;17.60;90.60;;;20.88;74.68;102069.59;5014348;27;96949;-73
2021/07/09 03:06:00;;;;;;;2.05;0.77;;;17.50;90.60;;;20.88;73.99;102069.59;4994363;28;96982;-73
2021/07/09 03:08:31;;;;;;;4.53;1.70;;;17.60;90.60;;;20.88;74.75;102064.16;4995574;28;97909;-73
2021/07/09 03:10:59;;;;;;;0.75;0.60;;;17.50;90.60;;;20.82;74.51;102060.00;5013111;27;97857;-74
2021/07/09 03:13:30;;;;;;;4.00;1.20;;;17.50;90.60;;;20.77;75.23;102055.59;4995315;28;97215;-73
2021/07/09 03:15:58;;;;;;;2.03;1.13;;;17.50;90.60;;;20.74;75.00;102050.81;5016179;28;96885;-73
2021/07/09 03:18:28;;;;;;;2.03;1.85;;;17.50;90.90;;;20.79;74.50;102044.31;4999314;28;98917;-74
2021/07/09 03:20:58;;;;;;;3.20;2.38;;;17.50;90.60;;;20.80;74.40;102043.19;4996668;28;98538;-73
2021/07/09 03:23:27;;;;;;;8.15;2.00;;;17.50;90.60;;;20.76;74.78;102048.53;5004174;28;97605;-73
2021/07/09 03:25:58;;;;;;;2.88;2.53;;;17.50;90.70;;;20.75;74.36;102044.22;5004955;28;97211;-73
2021/07/09 03:28:27;;;;;;;0.93;0.93;;;17.40;90.60;;;20.75;75.37;102046.94;5015245;27;97082;-73
2021/07/09 03:30:55;;;;;;;1.25;1.15;;;17.40;90.60;;;20.73;75.12;102046.50;4999863;28;97655;-74
2021/07/09 03:33:24;;;;;;;1.55;1.45;;;17.40;90.60;;;20.77;74.59;102050.13;4995241;28;96950;-73
2021/07/09 03:35:55;;;;;;;0.82;0.75;;;17.40;90.60;;;20.77;74.37;102041.97;4998248;28;97178;-74
2021/07/09 03:38:23;;;;;;;1.02;0.95;;;17.40;90.60;;;20.77;73.92;102044.69;4994018;28;99197;-74
2021/07/09 03:40:52;;;;;;;16.63;1.67;;;17.40;90.60;;;20.75;74.63;102038.78;5003570;28;97788;-74
2021/07/09 03:43:21;;;;;;;5.28;3.22;;;17.40;90.60;;;20.69;74.04;102044.78;5000730;28;96925;-73
2021/07/09 03:45:49;;;;;;;2.50;1.75;;;17.40;90.60;;;20.63;74.79;102041.47;4996048;28;96974;-75
2021/07/09 03:48:18;;;;;;;8.80;2.70;;;17.40;90.60;;;20.63;74.42;102046.91;5004046;28;97953;-73
2021/07/09 03:50:47;;;;;;;1.13;1.10;;;17.40;90.60;;;20.67;74.82;102047.03;4998024;28;97734;-74
2021/07/09 03:53:17;;;;;;;1.20;0.98;;;17.40;90.60;;;20.72;74.65;102044.91;4999151;28;96841;-74
2021/07/09 03:55:46;;;;;;;5.78;3.13;;;17.40;90.60;;;20.74;73.73;102041.81;4996409;28;96999;-74
2021/07/09 03:58:14;;;;;;;18.65;1.85;;;17.40;90.60;;;20.78;74.44;102050.91;4998085;28;98260;-74
2021/07/09 04:00:43;;;;;;;1.42;1.35;;;17.40;90.60;;;20.79;74.03;102058.75;4999095;28;97947;-74
2021/07/09 04:03:12;;;;;;;20.35;2.83;;;17.40;90.50;;;20.77;74.49;102046.59;5004195;28;96786;-73
2021/07/09 04:05:40;;;;;;;1.58;1.48;;;17.40;90.50;;;20.77;74.53;102047.41;5033810;27;97441;-74
2021/07/09 04:08:09;;;;;;;12.07;1.80;;;17.50;90.50;;;20.80;73.91;102052.19;4997012;28;97993;-74
2021/07/09 04:10:39;;;;;;;1.05;0.95;;;17.50;90.50;;;20.91;73.77;102052.56;4989407;28;96807;-74
2021/07/09 04:13:08;;;;;;;2.28;2.05;;;17.50;90.50;;;20.94;73.47;102055.41;5002601;28;97561;-73
2021/07/09 04:15:37;;;;;;;2.65;2.20;;;17.50;90.50;;;21.03;73.83;102056.09;5004433;28;97172;-73
2021/07/09 04:18:06;;;;;;;1.25;0.77;;;17.60;90.40;;;21.14;73.05;102054.50;4983301;28;100126;-74
2021/07/09 04:20:35;;;;;;;1.83;1.67;;;17.60;90.40;;;21.25;73.35;102058.38;4998100;28;97686;-73
2021/07/09 04:23:04;;;;;;;0.70;0.60;;;17.70;90.30;;;21.34;72.80;102053.63;5006863;28;97045;-74
2021/07/09 04:25:34;;;;;;;1.95;1.20;;;17.80;90.30;;;21.34;72.74;102052.81;5001810;28;97305;-73
2021/07/09 04:28:07;;;;;;;0.82;0.82;;;17.90;90.20;;;21.33;73.06;102053.94;5006186;28;97377;-74
2021/07/09 04:30:35;;;;;;;3.53;1.88;;;17.90;90.10;;;21.34;72.68;102061.78;4999303;28;97692;-73
2021/07/09 04:33:04;;;;;;;2.28;2.08;;;18.00;90.10;;;21.37;73.29;102063.03;5015504;27;96788;-74
2021/07/09 04:35:33;;;;;;;0.63;0.60;;;18.00;90.10;;;21.38;73.28;102072.78;5001664;28;97007;-73
2021/07/09 04:38:06;;;;;;;9.85;1.05;;;18.00;90.10;;;21.43;73.17;102067.09;4998677;28;97665;-73
2021/07/09 04:40:35;;;;;;;2.90;2.58;;;18.00;90.10;;;21.45;73.39;102064.84;5001263;28;98078;-73
2021/07/09 04:43:06;;;;;;;2.58;2.40;;;18.00;90.30;;;21.52;73.16;102063.13;5003127;28;97027;-74
2021/07/09 04:45:35;;;;;;;3.97;2.35;;;18.10;90.00;;;21.55;72.83;102070.63;4999883;28;96871;-74
2021/07/09 04:48:05;;;;;;;8.13;2.13;;;18.10;90.00;;;21.60;73.02;102062.19;4996654;28;97115;-74
2021/07/09 04:50:35;;;;;;;3.38;1.60;;;18.10;90.00;;;21.70;72.80;102058.25;4996195;28;96786;-74
2021/07/09 04:53:05;;;;;;;1.95;1.45;;;18.20;90.00;;;21.79;72.23;102067.13;5000528;28;96836;-74
2021/07/09 04:55:33;;;;;;;0.30;0.30;;;18.20;89.80;;;21.83;72.67;102065.28;5001985;28;97005;-73
2021/07/09 04:58:05;;;;;;;2.05;1.52;;;18.30;89.80;;;21.96;71.63;102062.19;5017903;27;97768;-74
2021/07/09 05:00:34;;;;;;;5.30;2.37;;;18.30;89.70;;;21.95;72.24;102059.78;4999433;28;97768;-74
2021/07/09 05:03:05;;;;;;;1.67;1.10;;;18.40;89.70;;;21.98;72.65;102057.16;5003540;28;96863;-74
2021/07/09 05:05:34;;;;;;;2.33;2.03;;;18.50;89.50;;;22.11;72.10;102055.97;5002307;28;96836;-74
2021/07/09 05:08:06;;;;;;;2.08;1.88;;;18.50;89.50;;;22.15;71.58;102056.88;5000178;28;98475;-74
2021/07/09 05:10:35;;;;;;;2.65;1.38;;;18.60;89.30;;;22.39;71.62;102062.25;5014180;28;97616;-74
2021/07/09 05:13:07;;;;;;;1.65;1.30;;;18.70;89.20;;;22.48;71.58;102060.97;5002234;28;97232;-74
2021/07/09 05:15:37;;;;;;;4.60;1.35;;;18.80;89.10;;;22.63;71.18;102062.13;5000116;28;96957;-74
2021/07/09 05:18:07;;;;;;;0.55;0.55;;;18.90;88.90;;;22.82;70.75;102051.34;4998013;28;97556;-74
2021/07/09 05:20:36;;;;;;;1.15;1.13;;;19.00;88.70;;;23.02;70.32;102048.34;4998989;28;98674;-75
2021/07/09 05:23:05;;;;;;;2.42;1.83;;;19.10;88.50;;;23.18;69.27;102056.56;5002347;28;96861;-75
2021/07/09 05:25:34;;;;;;;5.68;3.10;;;19.30;88.30;;;23.34;69.67;102047.19;5001306;28;97567;-74
2021/07/09 05:28:06;;;;;;;5.07;3.20;;;19.40;88.00;;;23.57;69.22;102050.03;4995359;28;99724;-74
2021/07/09 05:30:35;;;;;;;7.72;2.88;;;19.50;87.80;;;23.78;68.88;102056.78;5016150;27;99999;-74
2021/07/09 05:33:05;;;;;;;6.22;2.78;;;19.70;87.50;;;24.06;68.44;102052.72;5006007;28;97387;-74
2021/07/09 05:35:37;;;;;;;9.05;3.35;;;19.90;87.30;;;24.32;68.10;102055.59;5001057;28;98331;-74
2021/07/09 05:38:07;;;;;;;6.85;1.73;;;20.10;87.00;;;24.51;67.58;102061.06;4995757;28;96837;-74
2021/07/09 05:40:36;;;;;;;5.20;2.30;;;20.30;86.70;;;24.68;67.66;102062.56;5014121;28;97670;-74
2021/07/09 05:43:06;;;;;;;6.25;1.63;;;20.40;86.50;;;24.87;67.07;102074.25;4998885;28;96780;-74
2021/07/09 05:45:36;;;;;;;3.65;2.80;;;20.60;86.30;;;25.19;67.02;102072.88;5000772;28;96967;-74
2021/07/09 05:48:05;;;;;;;8.65;3.55;;;20.90;86.10;;;25.68;66.12;102068.94;5000769;28;97016;-74
2021/07/09 05:50:34;;;;;;;3.40;2.28;;;21.20;85.80;;;26.19;65.02;102077.50;5004968;28;97055;-74
2021/07/09 05:53:05;;;;;;;3.05;2.47;;;21.50;85.40;;;26.55;64.41;102068.50;4998593;28;96971;-74
2021/07/09 05:55:33;;;;;;;3.42;1.52;;;21.80;84.90;;;26.79;64.48;102070.72;5017059;28;96958;-74
2021/07/09 05:58:05;;;;;;;4.22;2.08;;;22.20;84.30;;;27.11;63.84;102069.84;5002097;28;96867;-74
2021/07/09 06:00:35;;;;;;;6.53;2.53;;;22.50;83.60;;;27.11;64.40;102072.59;5005505;28;97709;-74
2021/07/09 06:03:04;;;;;;;3.22;2.65;;;22.80;83.30;;;26.97;65.21;102074.41;4996578;28;96943;-75
2021/07/09 06:05:33;;;;;;;6.05;1.70;;;22.80;83.30;;;27.00;65.55;102076.38;5014957;27;97501;-74
2021/07/09 06:08:06;;;;;;;2.20;1.60;;;22.80;83.60;;;27.05;65.60;102081.56;5001952;28;97892;-74
2021/07/09 06:10:35;;;;;;;12.32;3.58;;;22.90;83.80;;;27.08;65.47;102086.31;4998717;28;97147;-74
2021/07/09 06:13:07;;;;;;;2.17;1.23;;;22.90;83.90;;;26.99;66.36;102088.56;5001024;28;97342;-74
2021/07/09 06:15:36;;;;;;;2.72;1.52;;;23.00;83.90;;;27.06;66.27;102088.66;5000555;28;97025;-73
2021/07/09 06:18:19;;;;;;;4.30;3.22;;;23.00;83.80;;;27.31;65.78;102084.94;5005276;28;96997;-75
2021/07/09 06:20:49;;;;;;;4.85;2.65;;;23.20;83.80;;;27.25;65.97;102103.00;5001218;28;97655;-75
2021/07/09 06:23:18;;;;;;;3.45;2.13;;;23.20;83.60;;;27.28;65.91;102099.47;5001847;28;96907;-73
2021/07/09 06:25:47;;;;;;;4.75;1.65;;;23.20;83.60;;;27.24;66.32;102106.09;5000169;28;97713;-74
2021/07/09 06:28:19;;;;;;;2.67;1.75;;;23.30;83.70;;;27.19;66.66;102096.25;4995525;28;97356;-74
2021/07/09 06:30:47;;;;;;;3.33;2.35;;;23.20;83.70;;;27.24;66.57;102103.34;4997311;28;97890;-74
2021/07/09 06:33:16;;;;;;;3.92;2.00;;;23.30;83.80;;;27.63;65.59;102105.22;5004435;28;96861;-74
2021/07/09 06:35:45;;;;;;;7.13;1.92;;;23.40;83.60;;;28.08;64.61;102108.28;5021896;27;96981;-74
2021/07/09 06:38:14;;;;;;;5.47;2.67;;;23.70;83.40;;;28.43;63.83;102111.19;5013064;27;98087;-74
2021/07/09 06:40:45;;;;;;;4.60;2.20;;;23.90;82.90;;;28.71;63.09;102108.50;4998280;28;97551;-75
2021/07/09 06:43:15;;;;;;;3.97;2.30;;;24.10;82.40;;;28.74;63.50;102107.72;4985759;28;96875;-74
2021/07/09 06:45:44;;;;;;;3.85;2.33;;;24.30;82.10;;;28.72;63.88;102117.59;5005491;28;97607;-74
2021/07/09 06:48:13;;;;;;;2.70;1.88;;;24.50;82.10;;;28.94;63.48;102106.22;4999244;28;97939;-74
2021/07/09 06:50:42;;;;;;;3.28;1.60;;;24.60;81.70;;;29.32;63.12;102103.47;4997967;28;97698;-74
2021/07/09 06:53:11;;;;;;;3.10;2.03;;;24.90;81.60;;;31.59;57.35;102068.28;5014212;28;96992;-76
2021/07/09 06:55:40;;;;;;;3.40;1.92;;;25.90;80.40;;;33.11;54.29;102066.63;5004525;28;96980;-74
2021/07/09 06:58:09;;;;;;;13.23;3.08;;;27.00;78.20;;;35.68;49.42;102066.88;4979957;28;98745;-74
2021/07/09 07:00:38;;;;;;;5.03;3.05;;;28.60;76.20;;;38.66;44.15;102073.75;4997535;28;99234;-74
2021/07/09 07:03:08;;;;;;;5.95;1.60;;;30.70;72.70;;;39.40;44.28;102076.28;4999121;28;97515;-75
2021/07/09 07:05:37;;;;;;;2.53;1.30;;;32.10;70.10;;;39.45;45.23;102087.66;4995553;28;96998;-74
2021/07/09 07:08:17;;;;;;;6.07;1.88;;;32.70;69.30;;;37.57;50.30;102089.59;5000148;28;97989;-74
2021/07/09 07:10:49;;;;;;;5.28;2.47;;;32.40;70.30;;;36.68;53.34;102084.59;5001974;28;97427;-74
2021/07/09 07:13:18;;;;;;;7.10;2.22;;;32.00;72.20;;;36.22;54.98;102107.56;5000579;28;96948;-74
2021/07/09 07:15:48;;;;;;;15.10;3.88;;;31.70;73.30;;;36.79;53.77;102107.38;5000587;28;96933;-75
2021/07/09 07:18:18;;;;;;;3.33;1.95;;;31.70;74.30;;;38.17;51.02;102063.72;4996896;28;98540;-74
2021/07/09 07:20:49;;;;;;;2.05;1.48;;;32.20;74.00;;;38.21;51.09;102087.56;5018108;27;97758;-74
2021/07/09 07:23:19;;;;;;;12.27;2.53;;;32.50;73.30;;;36.11;56.68;102099.50;4998009;28;96890;-74
2021/07/09 07:25:50;;;;;;;3.20;2.28;;;31.90;74.10;;;34.60;60.26;102098.22;5000769;28;96983;-75
2021/07/09 07:28:21;;;;;;;1.70;1.60;;;31.20;75.50;;;33.98;61.27;102097.59;5001031;28;97356;-76
2021/07/09 07:31:10;;;;;;;3.42;2.05;;;30.50;77.30;;;33.75;61.60;102100.44;4998878;28;97842;-74
2021/07/09 07:33:41;;;;;;;3.60;2.17;;;30.10;77.60;;;33.25;62.29;102092.19;5001507;28;96787;-74
2021/07/09 07:36:17;;;;;;;8.23;1.77;;;29.70;78.40;;;32.10;64.69;102099.38;5034517;27;97032;-74
2021/07/09 07:38:48;;;;;;;3.08;1.42;;;29.00;79.00;;;30.91;67.45;102108.81;5016713;27;96773;-74
2021/07/09 07:41:19;;;;;;;13.77;2.10;;;28.30;79.80;;;30.06;68.99;102111.66;5005311;28;99227;-75
2021/07/09 07:43:48;;;;;;;6.43;3.92;;;27.60;80.80;;;29.83;69.15;102108.53;5004648;28;97043;-75
2021/07/09 07:46:18;;;;;;;3.17;1.77;;;27.10;81.60;;;30.60;66.59;102109.06;5002419;28;96944;-74
2021/07/09 07:48:48;;;;;;;2.55;2.17;;;26.90;82.30;;;30.65;66.45;102108.63;5004934;28;97764;-75
2021/07/09 07:51:17;;;;;;;2.78;1.17;;;26.80;82.40;;;31.13;64.57;102101.97;4988873;28;97030;-75
2021/07/09 07:53:46;;;;;;;1.02;1.00;;;26.90;82.30;;;31.30;64.06;102108.53;5003603;28;96917;-74
2021/07/09 07:56:16;;;;;;;2.03;0.88;;;27.00;82.20;;;32.10;61.71;102096.63;5001761;28;96855;-75
2021/07/09 07:58:45;;;;;;;4.40;1.60;;;27.20;81.80;;;32.47;61.00;102102.88;5000328;28;98149;-74
2021/07/09 08:01:14;;;;;;;0.77;0.60;;;27.40;81.20;;;34.70;55.35;102098.03;5028915;27;99801;-75
2021/07/09 08:03:43;;;;;;;3.90;1.83;;;27.90;80.50;;;35.93;52.35;102104.00;5021587;27;97305;-75
2021/07/09 08:06:13;;;;;;;2.92;1.45;;;28.70;79.20;;;35.10;55.39;102091.06;5007401;28;96999;-76
2021/07/09 08:08:43;;;;;;;1.42;1.27;;;29.10;78.30;;;34.96;56.30;102102.56;5033554;27;98187;-75
2021/07/09 08:11:12;;;;;;;2.50;1.50;;;29.30;78.40;;;34.37;57.97;102099.16;4999838;28;97252;-74
2021/07/09 08:13:40;;;;;;;6.65;3.13;;;29.30;78.40;;;33.68;59.85;102097.81;4998952;28;97025;-75
2021/07/09 08:16:11;;;;;;;4.30;1.83;;;29.10;78.70;;;34.68;56.41;102096.88;5001626;28;96649;-74
2021/07/09 08:18:40;;;;;;;8.70;1.80;;;29.10;79.00;;;35.55;54.91;102094.69;5017023;28;97955;-74
2021/07/09 08:21:08;;;;;;;3.47;1.83;;;29.40;78.30;;;36.98;50.58;102096.00;5001166;28;96820;-73
2021/07/09 08:23:39;;;;;;;2.65;2.30;;;29.70;78.00;;;39.00;46.82;102092.41;5018121;27;96794;-75
2021/07/09 08:26:08;;;;;;;1.88;1.55;;;30.40;77.00;;;38.96;47.90;102098.16;5000452;28;97334;-74
2021/07/09 08:28:37;;;;;;;2.08;1.42;;;31.00;76.20;;;39.19;47.48;102096.84;4999972;28;98013;-75
2021/07/09 08:31:06;;;;;;;0.50;0.50;;;31.30;75.90;;;38.46;50.27;102095.81;4980305;28;96900;-75
2021/07/09 08:33:35;;;;;;;0.80;0.63;;;31.60;75.70;;;41.22;43.24;102083.19;5013861;27;97192;-75
2021/07/09 08:36:05;;;;;;;1.15;0.82;;;31.90;75.60;;;43.40;39.98;102082.50;5004259;28;97903;-73
2021/07/09 08:38:34;;;;;;;2.53;1.35;;;32.80;74.40;;;43.78;40.74;102085.00;5002103;28;96950;-73
2021/07/09 08:41:05;;;;;;;8.25;3.78;;;33.70;73.50;;;42.52;44.01;102079.75;5014160;27;97797;-73
2021/07/09 08:43:33;;;;;;;1.65;1.52;;;34.00;73.30;;;42.16;44.81;102080.16;4997708;28;97205;-74
2021/07/09 08:46:04;;;;;;;1.45;1.23;;;34.10;73.50;;;40.73;48.44;102079.28;5030605;27;97211;-73
2021/07/09 08:48:38;;;;;;;0.47;0.47;;;34.00;74.00;;;39.79;51.44;102081.75;4999566;28;98142;-74
2021/07/09 08:51:09;;;;;;;2.15;1.50;;;33.90;74.50;;;39.72;51.47;102082.84;5012558;27;97668;-74
2021/07/09 08:53:39;;;;;;;3.17;2.05;;;33.60;75.00;;;38.39;54.77;102075.69;5002681;28;96828;-73
2021/07/09 08:56:10;;;;;;;1.67;0.77;;;33.40;75.40;;;37.92;55.70;102073.09;5000529;28;97101;-73
2021/07/09 08:58:45;;;;;;;4.18;2.17;;;33.10;75.80;;;42.29;44.87;102075.75;5001304;28;96749;-73
2021/07/09 09:01:15;;;;;;;4.25;1.13;;;33.20;75.60;;;43.43;42.85;102072.25;4998376;28;97875;-74
2021/07/09 09:03:44;;;;;;;1.38;1.05;;;33.80;75.00;;;40.46;50.30;102077.38;4998890;28;97277;-74
2021/07/09 09:06:16;;;;;;;2.03;1.40;;;33.90;74.60;;;37.79;56.78;102068.75;4998779;28;97400;-74
2021/07/09 09:08:45;;;;;;;2.65;1.63;;;33.50;74.80;;;35.95;60.86;102082.81;4995049;28;96873;-73
2021/07/09 09:11:15;;;;;;;1.48;0.98;;;32.80;75.70;;;35.81;60.70;102081.63;4983966;28;97617;-73
2021/07/09 09:13:45;;;;;;;1.52;1.38;;;32.10;76.50;;;36.42;58.23;102063.47;5000409;28;96817;-73
2021/07/09 09:16:16;;;;;;;1.92;1.13;;;31.70;77.20;;;38.56;53.35;102072.19;5003837;28;96715;-73
2021/07/09 09:18:49;;;;;;;3.72;1.77;;;31.70;77.80;;;39.63;50.57;102070.81;5001878;28;96788;-73
2021/07/09 09:21:21;;;;;;;2.90;1.38;;;32.00;77.50;;;40.04;49.76;102070.16;4999654;28;98258;-73
2021/07/09 09:23:56;;;;;;;5.68;1.88;;;32.40;77.10;;;40.69;48.50;102067.41;5005113;28;97220;-74
2021/07/09 09:26:50;;;;;;;0.70;0.60;;;32.70;76.50;;;40.86;48.79;102066.56;4996982;28;96900;-74
2021/07/09 09:29:36;;;;;;;2.20;0.65;;;33.00;76.30;;;42.32;46.11;102060.69;4996403;28;96927;-74
2021/07/09 09:32:09;;;;;;;0.63;0.63;;;33.40;75.90;;;43.51;44.02;102062.84;5030234;27;98785;-74
2021/07/09 09:34:40;;;;;;;0.80;0.68;;;33.80;75.90;;;43.69;44.71;102051.28;4998003;28;96789;-73
2021/07/09 09:37:10;;;;;;;1.58;0.43;;;34.30;75.90;;;43.24;46.07;102051.28;4998057;28;97046;-74
2021/07/09 09:39:42;;;;;;;1.83;0.90;;;34.60;75.10;;;43.08;46.83;102049.00;4995587;28;97967;-74
2021/07/09 09:42:21;;;;;;;1.85;0.93;;;34.80;75.30;;;42.22;48.59;102047.97;4997024;28;97704;-74
2021/07/09 09:44:53;;;;;;;0.65;0.65;;;34.90;75.00;;;41.23;51.48;102046.13;4997562;28;96922;-74
2021/07/09 09:47:23;;;;;;;;;;;34.80;75.70;;;40.98;52.09;102048.66;4980534;28;96879;-74
2021/07/09 09:49:55;;;;;;;0.93;0.85;;;34.70;75.10;;;41.30;51.04;102042.19;5011311;27;97854;-74
2021/07/09 09:52:45;;;;;;;1.05;1.00;;;34.60;76.20;;;41.28;51.55;102051.13;4997075;28;97817;-73
2021/07/09 09:55:17;;;;;;;7.03;0.70;;;34.70;75.70;;;41.10;51.94;102044.03;4995996;28;96814;-74
2021/07/09 09:58:08;;;;;;;1.27;0.82;;;34.70;76.40;;;40.34;54.17;102043.84;5000795;28;97491;-74
2021/07/09 10:00:39;;;;;;;0.98;0.90;;;34.60;76.20;;;40.68;53.13;102040.56;4999550;28;96670;-73
2021/07/09 10:03:20;;;;;;;1.30;1.10;;;34.60;76.20;;;41.16;52.32;102042.13;5032850;27;97908;-74
2021/07/09 10:05:51;;;;;;;1.42;1.23;;;34.60;76.60;;;41.42;51.75;102032.69;5003321;28;96790;-73
2021/07/09 10:08:24;;;;;;;0.50;0.50;;;34.80;76.70;;;41.58;52.19;102035.03;4998512;28;96973;-75
2021/07/09 10:10:53;;;;;;;;;;;35.00;76.70;;;41.23;53.69;102026.44;5020207;28;98243;-78
2021/07/09 10:13:26;;;;;;;12.13;1.30;;;35.30;76.00;;;40.92;54.71;102033.69;4989590;28;97702;-76
2021/07/09 10:15:58;;;;;;;1.55;1.05;;;35.40;76.50;;;40.81;55.33;102027.03;4999505;28;97142;-77
2021/07/09 10:18:30;;;;;;;1.77;0.90;;;35.40;76.70;;;40.77;55.87;102021.59;5017080;27;97543;-76
2021/07/09 10:20:59;;;;;;;1.15;0.80;;;35.50;76.80;;;40.47;56.38;102030.38;5002337;28;101041;-77
2021/07/09 10:23:32;;;;;;;1.60;1.20;;;35.50;76.70;;;40.28;57.13;102029.66;4999191;28;96976;-77
2021/07/09 10:26:03;;;;;;;2.55;0.82;;;35.50;76.80;;;40.06;57.94;102022.72;5005522;28;98108;-78